Loma Linda, CA (92350)

2:20 PM PDT on September 18, 2014 (GMT -0700)
Loma Linda | Change Station
CLOSE
Current Station
Personal Weather Station
Location: Loma Linda, CA
Elevation: 1240 ft
Nearby Weather Stations

Elev 1240 ft 34.04 °N, 117.22 °W | Updated 5 seconds ago

Clear
Clear
85.6 °F
Feels Like 85 °F
N
0.9
Wind Variable Wind from NNE
Gusts 4.9 mph

Today
High -- | Low -- °F
--% Chance of Precip.
Yesterday
High -- | Low -- °F
Precip. -- in
6:34 AM 6:51 PM
Waning Crescent, 24% visible
Pressure 29.85 in
Visibility 7.0 miles
Clouds Clear
Heat Index 85 °F
Dew Point 58 °F
Humidity 40%
Rainfall 0.00 in
Snow Depth 0 in , 0 in , 0 in
UV 8 out of 12
Pollen 6.80 out of 12
Ozone Good
PM2.5 Moderate
Flu Activity Not available.
METAR KSBD 182050Z 21006KT 7SM SKC 29/10 A2985

More Conditions Fewer Conditions

Pressure 29.85 in
Visibility 7.0 miles
Clouds Clear
Heat Index 85 °F
Dew Point 58 °F
Humidity 40%
Rainfall 0.00 in
Snow Depth 0 in , 0 in , 0 in
UV 8 out of 12
Pollen 6.80 out of 12
Ozone Good
PM2.5 Moderate
Flu Activity Not available.
METAR KSBD 182050Z 21006KT 7SM SKC 29/10 A2985

More Conditions Fewer Conditions

10-Day Weather Forecast

Almanac

Astronomy

Sep. 18, 2014 Rise Set
Actual Time 6:34 AM PDT 6:51 PM PDT
Civil Twilight 6:09 AM PDT 7:16 PM PDT
Nautical Twilight 5:40 AM PDT 7:45 PM PDT
Astronomical Twilight 5:10 AM PDT 8:15 PM PDT
Moon 1:40 AM PDT 3:35 PM PDT
Length of Visible Light 13h 06m
Length of Day
12h 16m
Tomorrow will be 2m 6s shorter.
Waning Crescent, 24% of the Moon is Illuminated
Today
Waning Crescent
Sep 24
New
Oct 1
First Quarter
Oct 8
Full
Oct 15
Last Quarter

Today's Extremes

State Highs State Lows

Community

WunderPhotos

Upload Photos

1,754,452 photos uploaded!

WunderBlogs® & News

Nearby

Air Quality

  Air Quality AQ Index Pollutant
Yesterday Moderate
OZONE
Yesterday Good
PM10
Current Moderate
PM2.5
Current Good
OZONE
Friday Good
PM10
Friday Good
OZONE
Friday Good
CO
Friday Good
NO2

Snow Depth

Station Depth Elevation
Burnside Lake 0 in 8139 ft
Forestdale Creek 0 in 8029 ft
Leavitt Meadows 0 in 7200 ft
Crowder Flat 0 in 5100 ft
Adin Mountain 0 in 6200 ft

Earthquake Activity

City Distance Mag. Time & Date
La Quinta, California 59 miles 2.7 8:59 PM PDT
2014-09-15
Minimum magnitude displayed is 2.5.

Coastal Water Temperatures

Place Temperature
No Stations Reporting

Nearby Weather Stations